首页
METAR-TAF:

METAR-TAF

机场 :

Cherry Capital Airport

特拉弗斯城, 密歇根州, 美国

纬度: 44-44-12N, 经度: 085-34-12W, 海拔: 190米

当前天气观测

该预报发布于32分钟前的23:53 UTC
风速5节,风向
温度 -6°C
湿度 58%
气压 1023 hPa
能見度: 16.1公里
散云层高于5000英尺
多云层高于7000英尺

METAR: KTVC 112353Z 09005KT 10SM SCT050 BKN070 M06/M13 A3022 RMK AO2 SLP245 4/004 60000 T10611128 11022 21061 53010

时间: 19:25 (00:25 UTC)

预报

该预报发布于24分钟前的00:01 UTC
预报有效从12日的 00点(UTC)到 12日的 24点(UTC)
风速4节,风向多变
能見度: 9.7公里
多云层高于3500英尺
小阵雪
从 12日的 0600点(UTC)
风速8节,风向北转西北
能見度: 1.2公里
阴天层高于1200英尺
小阵雪
从 12日的 1000点(UTC)
风速11节,风向西北,有时为21节阵风
能見度: 3.2公里
多云层高于2100英尺
小阵雪
从 12日的 1300点(UTC)
风速8节,风向北转西北
能見度: 9.7公里
多云层高于4500英尺
小阵雪
从 12日的 1900点(UTC)
风速10节,风向西转西北,有时为20节阵风
能見度: 9.7公里
散云层高于3000英尺
小阵雪

TAF: KTVC 120001Z 1200/1224 VRB04KT 6SM -SHSN BKN035 FM120600 34008KT 3/4SM -SHSN OVC012 FM121000 32011G21KT 2SM -SHSN BKN021 FM121300 34008KT 6SM -SHSN BKN045 FM121900 30010G20KT 6SM -SHSN SCT030

超过4000个机场的气象观测和天气预报(METAR&TAF报告)。

可查询的气象台以黄色和红色小点在地图上表示。

将鼠标移到小点上方,可查看气象台名称。

然后点击查看天气观测和预报。

如需切换地图:点击带黑十字的绿色按钮放大地图;点击带横线的绿色按钮缩小地图;或者点击绿色箭头查看邻近地区的地图。


METAR-TAF: